sensor_id;sensor_type;location;lat;lon;timestamp;P1;durP1;ratioP1;P2;durP2;ratioP2
8279;SDS011;8335;42.646;23.380;2022-10-31T00:01:50;9.70;;;4.23;;
8279;SDS011;8335;42.646;23.380;2022-10-31T00:04:16;7.83;;;4.63;;
8279;SDS011;8335;42.646;23.380;2022-10-31T00:06:43;10.60;;;4.60;;
8279;SDS011;8335;42.646;23.380;2022-10-31T00:09:10;9.67;;;3.93;;
8279;SDS011;8335;42.646;23.380;2022-10-31T00:11:37;6.73;;;4.00;;
8279;SDS011;8335;42.646;23.380;2022-10-31T00:14:04;6.50;;;4.33;;
8279;SDS011;8335;42.646;23.380;2022-10-31T00:16:32;6.23;;;4.27;;
8279;SDS011;8335;42.646;23.380;2022-10-31T00:18:59;6.37;;;4.50;;
8279;SDS011;8335;42.646;23.380;2022-10-31T00:21:28;6.90;;;4.00;;
8279;SDS011;8335;42.646;23.380;2022-10-31T00:23:56;7.13;;;4.43;;
8279;SDS011;8335;42.646;23.380;2022-10-31T00:26:23;7.77;;;4.60;;
8279;SDS011;8335;42.646;23.380;2022-10-31T00:28:50;9.67;;;4.63;;
8279;SDS011;8335;42.646;23.380;2022-10-31T00:31:18;8.73;;;4.20;;
8279;SDS011;8335;42.646;23.380;2022-10-31T00:33:46;7.10;;;4.43;;
8279;SDS011;8335;42.646;23.380;2022-10-31T00:36:13;12.73;;;5.20;;
8279;SDS011;8335;42.646;23.380;2022-10-31T00:38:43;5.57;;;4.13;;
8279;SDS011;8335;42.646;23.380;2022-10-31T00:41:10;8.17;;;4.40;;
8279;SDS011;8335;42.646;23.380;2022-10-31T00:43:38;10.40;;;4.10;;
8279;SDS011;8335;42.646;23.380;2022-10-31T00:46:04;9.13;;;4.40;;
8279;SDS011;8335;42.646;23.380;2022-10-31T00:48:31;7.97;;;4.17;;
8279;SDS011;8335;42.646;23.380;2022-10-31T00:50:59;10.37;;;4.77;;
8279;SDS011;8335;42.646;23.380;2022-10-31T00:53:26;8.70;;;4.90;;
8279;SDS011;8335;42.646;23.380;2022-10-31T00:55:53;6.90;;;4.17;;
8279;SDS011;8335;42.646;23.380;2022-10-31T00:58:19;4.97;;;4.03;;
8279;SDS011;8335;42.646;23.380;2022-10-31T01:00:46;11.90;;;4.10;;
8279;SDS011;8335;42.646;23.380;2022-10-31T01:03:19;5.80;;;3.90;;
8279;SDS011;8335;42.646;23.380;2022-10-31T01:05:54;6.57;;;4.60;;
8279;SDS011;8335;42.646;23.380;2022-10-31T01:08:23;5.90;;;3.90;;
8279;SDS011;8335;42.646;23.380;2022-10-31T01:11:00;7.10;;;3.83;;
8279;SDS011;8335;42.646;23.380;2022-10-31T01:13:28;5.73;;;3.70;;
8279;SDS011;8335;42.646;23.380;2022-10-31T01:15:55;9.13;;;4.03;;
8279;SDS011;8335;42.646;23.380;2022-10-31T01:18:22;6.87;;;4.60;;
8279;SDS011;8335;42.646;23.380;2022-10-31T01:20:56;7.00;;;4.37;;
8279;SDS011;8335;42.646;23.380;2022-10-31T01:23:25;5.57;;;3.57;;
8279;SDS011;8335;42.646;23.380;2022-10-31T01:25:59;6.13;;;3.83;;
8279;SDS011;8335;42.646;23.380;2022-10-31T01:28:31;6.40;;;4.10;;
8279;SDS011;8335;42.646;23.380;2022-10-31T01:31:02;7.60;;;3.83;;
8279;SDS011;8335;42.646;23.380;2022-10-31T01:33:30;8.40;;;4.13;;
8279;SDS011;8335;42.646;23.380;2022-10-31T01:35:57;8.73;;;4.40;;
8279;SDS011;8335;42.646;23.380;2022-10-31T01:38:24;7.33;;;4.20;;
8279;SDS011;8335;42.646;23.380;2022-10-31T01:40:52;9.33;;;4.20;;
8279;SDS011;8335;42.646;23.380;2022-10-31T01:43:19;7.43;;;3.97;;
8279;SDS011;8335;42.646;23.380;2022-10-31T01:45:46;9.43;;;4.07;;
8279;SDS011;8335;42.646;23.380;2022-10-31T01:48:19;7.60;;;3.83;;
8279;SDS011;8335;42.646;23.380;2022-10-31T01:50:49;8.37;;;4.33;;
8279;SDS011;8335;42.646;23.380;2022-10-31T01:53:20;8.50;;;4.10;;
8279;SDS011;8335;42.646;23.380;2022-10-31T01:55:49;10.23;;;5.10;;
8279;SDS011;8335;42.646;23.380;2022-10-31T01:58:19;5.53;;;4.00;;
8279;SDS011;8335;42.646;23.380;2022-10-31T02:00:51;11.47;;;4.50;;
8279;SDS011;8335;42.646;23.380;2022-10-31T02:03:22;6.47;;;3.70;;
8279;SDS011;8335;42.646;23.380;2022-10-31T02:05:51;6.93;;;3.70;;
8279;SDS011;8335;42.646;23.380;2022-10-31T02:08:21;8.37;;;3.83;;
8279;SDS011;8335;42.646;23.380;2022-10-31T02:10:54;7.57;;;3.87;;
8279;SDS011;8335;42.646;23.380;2022-10-31T02:13:23;8.57;;;4.17;;
8279;SDS011;8335;42.646;23.380;2022-10-31T02:15:52;6.20;;;4.20;;
8279;SDS011;8335;42.646;23.380;2022-10-31T02:18:20;7.53;;;4.20;;
8279;SDS011;8335;42.646;23.380;2022-10-31T02:20:52;7.97;;;3.83;;
8279;SDS011;8335;42.646;23.380;2022-10-31T02:23:48;5.13;;;3.90;;
8279;SDS011;8335;42.646;23.380;2022-10-31T02:26:52;4.80;;;3.83;;
8279;SDS011;8335;42.646;23.380;2022-10-31T02:32:31;5.83;;;3.70;;
8279;SDS011;8335;42.646;23.380;2022-10-31T02:35:10;8.93;;;3.63;;
8279;SDS011;8335;42.646;23.380;2022-10-31T02:37:47;8.43;;;4.53;;
8279;SDS011;8335;42.646;23.380;2022-10-31T02:40:25;7.90;;;4.40;;
8279;SDS011;8335;42.646;23.380;2022-10-31T02:42:56;9.67;;;4.73;;
8279;SDS011;8335;42.646;23.380;2022-10-31T02:45:29;7.10;;;4.10;;
8279;SDS011;8335;42.646;23.380;2022-10-31T02:48:03;8.10;;;4.37;;
8279;SDS011;8335;42.646;23.380;2022-10-31T02:50:37;8.40;;;4.97;;
8279;SDS011;8335;42.646;23.380;2022-10-31T02:53:08;6.53;;;4.43;;
8279;SDS011;8335;42.646;23.380;2022-10-31T02:55:47;10.00;;;4.47;;
8279;SDS011;8335;42.646;23.380;2022-10-31T02:58:18;10.80;;;4.20;;
8279;SDS011;8335;42.646;23.380;2022-10-31T03:00:51;14.87;;;4.53;;
8279;SDS011;8335;42.646;23.380;2022-10-31T03:03:32;5.13;;;4.27;;
8279;SDS011;8335;42.646;23.380;2022-10-31T03:06:11;10.13;;;4.43;;
8279;SDS011;8335;42.646;23.380;2022-10-31T03:08:45;9.73;;;4.90;;
8279;SDS011;8335;42.646;23.380;2022-10-31T03:11:21;8.07;;;5.07;;
8279;SDS011;8335;42.646;23.380;2022-10-31T03:13:57;8.67;;;5.40;;
8279;SDS011;8335;42.646;23.380;2022-10-31T03:16:28;8.87;;;4.60;;
8279;SDS011;8335;42.646;23.380;2022-10-31T03:19:04;7.50;;;4.10;;
8279;SDS011;8335;42.646;23.380;2022-10-31T03:21:35;9.93;;;5.37;;
8279;SDS011;8335;42.646;23.380;2022-10-31T03:24:06;7.50;;;5.00;;
8279;SDS011;8335;42.646;23.380;2022-10-31T03:26:35;7.57;;;4.27;;
8279;SDS011;8335;42.646;23.380;2022-10-31T03:29:05;7.50;;;4.60;;
8279;SDS011;8335;42.646;23.380;2022-10-31T03:31:34;8.87;;;4.63;;
8279;SDS011;8335;42.646;23.380;2022-10-31T03:34:05;10.70;;;4.70;;
8279;SDS011;8335;42.646;23.380;2022-10-31T03:36:33;10.60;;;5.07;;
8279;SDS011;8335;42.646;23.380;2022-10-31T03:39:05;11.30;;;4.60;;
8279;SDS011;8335;42.646;23.380;2022-10-31T03:41:34;7.17;;;3.97;;
8279;SDS011;8335;42.646;23.380;2022-10-31T03:44:09;14.17;;;5.03;;
8279;SDS011;8335;42.646;23.380;2022-10-31T03:46:40;9.97;;;4.43;;
8279;SDS011;8335;42.646;23.380;2022-10-31T03:49:10;8.97;;;5.07;;
8279;SDS011;8335;42.646;23.380;2022-10-31T03:51:39;10.43;;;5.50;;
8279;SDS011;8335;42.646;23.380;2022-10-31T03:54:13;8.97;;;4.67;;
8279;SDS011;8335;42.646;23.380;2022-10-31T03:56:48;11.33;;;4.83;;
8279;SDS011;8335;42.646;23.380;2022-10-31T03:59:20;9.80;;;4.97;;
8279;SDS011;8335;42.646;23.380;2022-10-31T04:01:51;7.57;;;4.40;;
8279;SDS011;8335;42.646;23.380;2022-10-31T04:04:24;8.43;;;4.93;;
8279;SDS011;8335;42.646;23.380;2022-10-31T04:06:52;9.20;;;4.50;;
8279;SDS011;8335;42.646;23.380;2022-10-31T04:09:23;9.77;;;4.80;;
8279;SDS011;8335;42.646;23.380;2022-10-31T04:11:52;12.00;;;5.90;;
8279;SDS011;8335;42.646;23.380;2022-10-31T04:14:20;9.70;;;4.83;;
8279;SDS011;8335;42.646;23.380;2022-10-31T04:16:50;10.53;;;5.60;;
8279;SDS011;8335;42.646;23.380;2022-10-31T04:19:17;8.47;;;5.60;;
8279;SDS011;8335;42.646;23.380;2022-10-31T04:21:45;10.83;;;5.70;;
8279;SDS011;8335;42.646;23.380;2022-10-31T04:24:12;9.97;;;6.10;;
8279;SDS011;8335;42.646;23.380;2022-10-31T04:26:39;7.80;;;5.87;;
8279;SDS011;8335;42.646;23.380;2022-10-31T04:29:06;10.13;;;5.97;;
8279;SDS011;8335;42.646;23.380;2022-10-31T04:31:32;9.90;;;5.50;;
8279;SDS011;8335;42.646;23.380;2022-10-31T04:33:59;17.10;;;6.00;;
8279;SDS011;8335;42.646;23.380;2022-10-31T04:36:26;11.00;;;6.10;;
8279;SDS011;8335;42.646;23.380;2022-10-31T04:38:54;9.70;;;5.87;;
8279;SDS011;8335;42.646;23.380;2022-10-31T04:41:21;11.90;;;6.23;;
8279;SDS011;8335;42.646;23.380;2022-10-31T04:43:48;10.73;;;6.33;;
8279;SDS011;8335;42.646;23.380;2022-10-31T04:46:14;16.67;;;7.20;;
8279;SDS011;8335;42.646;23.380;2022-10-31T04:48:41;7.57;;;5.93;;
8279;SDS011;8335;42.646;23.380;2022-10-31T04:51:08;10.57;;;5.73;;
8279;SDS011;8335;42.646;23.380;2022-10-31T04:53:35;10.53;;;6.77;;
8279;SDS011;8335;42.646;23.380;2022-10-31T04:56:03;10.57;;;6.60;;
8279;SDS011;8335;42.646;23.380;2022-10-31T04:58:30;9.30;;;6.53;;
8279;SDS011;8335;42.646;23.380;2022-10-31T05:00:57;11.77;;;6.20;;
8279;SDS011;8335;42.646;23.380;2022-10-31T05:03:24;12.13;;;6.10;;
8279;SDS011;8335;42.646;23.380;2022-10-31T05:05:50;12.23;;;6.27;;
8279;SDS011;8335;42.646;23.380;2022-10-31T05:08:17;10.07;;;6.60;;
8279;SDS011;8335;42.646;23.380;2022-10-31T05:10:44;10.33;;;5.70;;
8279;SDS011;8335;42.646;23.380;2022-10-31T05:13:12;9.57;;;5.97;;
8279;SDS011;8335;42.646;23.380;2022-10-31T05:15:40;13.10;;;6.53;;
8279;SDS011;8335;42.646;23.380;2022-10-31T05:18:07;10.97;;;6.43;;
8279;SDS011;8335;42.646;23.380;2022-10-31T05:20:34;14.47;;;6.10;;
8279;SDS011;8335;42.646;23.380;2022-10-31T05:23:01;11.73;;;6.43;;
8279;SDS011;8335;42.646;23.380;2022-10-31T05:25:28;11.23;;;6.20;;
8279;SDS011;8335;42.646;23.380;2022-10-31T05:27:55;12.53;;;7.20;;
8279;SDS011;8335;42.646;23.380;2022-10-31T05:30:26;12.70;;;5.50;;
8279;SDS011;8335;42.646;23.380;2022-10-31T05:32:53;11.77;;;5.80;;
8279;SDS011;8335;42.646;23.380;2022-10-31T05:35:21;14.57;;;5.53;;
8279;SDS011;8335;42.646;23.380;2022-10-31T05:37:49;15.60;;;5.93;;
8279;SDS011;8335;42.646;23.380;2022-10-31T05:40:17;11.07;;;5.73;;
8279;SDS011;8335;42.646;23.380;2022-10-31T05:42:45;10.27;;;5.10;;
8279;SDS011;8335;42.646;23.380;2022-10-31T05:45:12;11.47;;;5.57;;
8279;SDS011;8335;42.646;23.380;2022-10-31T05:47:49;8.17;;;5.20;;
8279;SDS011;8335;42.646;23.380;2022-10-31T05:50:16;7.23;;;4.87;;
8279;SDS011;8335;42.646;23.380;2022-10-31T05:52:43;9.83;;;5.83;;
8279;SDS011;8335;42.646;23.380;2022-10-31T05:55:10;9.70;;;4.70;;
8279;SDS011;8335;42.646;23.380;2022-10-31T05:57:36;10.07;;;5.40;;
8279;SDS011;8335;42.646;23.380;2022-10-31T06:00:04;9.57;;;5.30;;
8279;SDS011;8335;42.646;23.380;2022-10-31T06:02:31;10.30;;;5.40;;
8279;SDS011;8335;42.646;23.380;2022-10-31T06:05:00;12.80;;;6.03;;
8279;SDS011;8335;42.646;23.380;2022-10-31T06:07:31;12.57;;;5.40;;
8279;SDS011;8335;42.646;23.380;2022-10-31T06:09:58;12.33;;;5.70;;
8279;SDS011;8335;42.646;23.380;2022-10-31T06:12:25;13.27;;;6.10;;
8279;SDS011;8335;42.646;23.380;2022-10-31T06:14:52;17.73;;;6.03;;
8279;SDS011;8335;42.646;23.380;2022-10-31T06:17:19;16.83;;;5.68;;
8279;SDS011;8335;42.646;23.380;2022-10-31T06:19:46;13.80;;;5.80;;
8279;SDS011;8335;42.646;23.380;2022-10-31T06:22:14;14.13;;;5.40;;
8279;SDS011;8335;42.646;23.380;2022-10-31T06:24:40;17.00;;;5.97;;
8279;SDS011;8335;42.646;23.380;2022-10-31T06:27:07;20.05;;;5.85;;
8279;SDS011;8335;42.646;23.380;2022-10-31T06:29:34;21.20;;;6.38;;
8279;SDS011;8335;42.646;23.380;2022-10-31T06:32:01;14.43;;;5.72;;
8279;SDS011;8335;42.646;23.380;2022-10-31T06:34:27;18.23;;;6.00;;
8279;SDS011;8335;42.646;23.380;2022-10-31T06:36:54;12.32;;;5.78;;
8279;SDS011;8335;42.646;23.380;2022-10-31T06:39:22;11.88;;;5.75;;
8279;SDS011;8335;42.646;23.380;2022-10-31T06:41:49;12.15;;;6.72;;
8279;SDS011;8335;42.646;23.380;2022-10-31T06:44:16;16.20;;;6.60;;
8279;SDS011;8335;42.646;23.380;2022-10-31T06:46:42;11.43;;;5.50;;
8279;SDS011;8335;42.646;23.380;2022-10-31T06:49:09;8.75;;;5.10;;
8279;SDS011;8335;42.646;23.380;2022-10-31T06:51:36;11.30;;;5.50;;
8279;SDS011;8335;42.646;23.380;2022-10-31T06:54:03;13.50;;;6.35;;
8279;SDS011;8335;42.646;23.380;2022-10-31T06:56:31;13.25;;;6.68;;
8279;SDS011;8335;42.646;23.380;2022-10-31T06:58:58;14.63;;;6.25;;
8279;SDS011;8335;42.646;23.380;2022-10-31T07:01:24;14.27;;;6.57;;
8279;SDS011;8335;42.646;23.380;2022-10-31T07:03:51;15.82;;;7.55;;
8279;SDS011;8335;42.646;23.380;2022-10-31T07:06:18;15.18;;;7.18;;
8279;SDS011;8335;42.646;23.380;2022-10-31T07:08:44;13.57;;;7.72;;
8279;SDS011;8335;42.646;23.380;2022-10-31T07:11:11;11.02;;;7.50;;
8279;SDS011;8335;42.646;23.380;2022-10-31T07:13:39;13.02;;;7.15;;
8279;SDS011;8335;42.646;23.380;2022-10-31T07:16:06;16.75;;;8.27;;
8279;SDS011;8335;42.646;23.380;2022-10-31T07:18:35;11.98;;;8.27;;
8279;SDS011;8335;42.646;23.380;2022-10-31T07:21:02;13.52;;;8.23;;
8279;SDS011;8335;42.646;23.380;2022-10-31T07:23:29;13.52;;;8.50;;
8279;SDS011;8335;42.646;23.380;2022-10-31T07:25:56;15.82;;;8.77;;
8279;SDS011;8335;42.646;23.380;2022-10-31T07:28:23;13.50;;;8.30;;
8279;SDS011;8335;42.646;23.380;2022-10-31T07:30:52;18.50;;;9.27;;
8279;SDS011;8335;42.646;23.380;2022-10-31T07:33:20;16.92;;;9.48;;
8279;SDS011;8335;42.646;23.380;2022-10-31T07:35:47;19.55;;;10.32;;
8279;SDS011;8335;42.646;23.380;2022-10-31T07:38:14;18.83;;;10.93;;
8279;SDS011;8335;42.646;23.380;2022-10-31T07:40:41;17.80;;;10.60;;
8279;SDS011;8335;42.646;23.380;2022-10-31T07:43:08;23.67;;;10.13;;
8279;SDS011;8335;42.646;23.380;2022-10-31T07:45:37;17.77;;;9.48;;
8279;SDS011;8335;42.646;23.380;2022-10-31T07:48:05;19.00;;;10.88;;
8279;SDS011;8335;42.646;23.380;2022-10-31T07:50:32;19.00;;;10.68;;
8279;SDS011;8335;42.646;23.380;2022-10-31T07:53:00;17.15;;;10.88;;
8279;SDS011;8335;42.646;23.380;2022-10-31T07:55:28;16.80;;;10.07;;
8279;SDS011;8335;42.646;23.380;2022-10-31T07:57:55;17.63;;;11.63;;
8279;SDS011;8335;42.646;23.380;2022-10-31T08:00:23;19.90;;;10.40;;
8279;SDS011;8335;42.646;23.380;2022-10-31T08:02:56;17.35;;;11.38;;
8279;SDS011;8335;42.646;23.380;2022-10-31T08:05:24;16.60;;;10.50;;
8279;SDS011;8335;42.646;23.380;2022-10-31T08:07:51;17.55;;;11.13;;
8279;SDS011;8335;42.646;23.380;2022-10-31T08:10:18;19.23;;;10.95;;
8279;SDS011;8335;42.646;23.380;2022-10-31T08:12:45;19.25;;;10.90;;
8279;SDS011;8335;42.646;23.380;2022-10-31T08:15:12;19.02;;;10.80;;
8279;SDS011;8335;42.646;23.380;2022-10-31T08:17:38;21.02;;;10.68;;
8279;SDS011;8335;42.646;23.380;2022-10-31T08:20:05;22.77;;;14.52;;
8279;SDS011;8335;42.646;23.380;2022-10-31T08:22:35;25.88;;;16.73;;
8279;SDS011;8335;42.646;23.380;2022-10-31T08:25:02;15.93;;;11.00;;
8279;SDS011;8335;42.646;23.380;2022-10-31T08:27:28;18.38;;;11.63;;
8279;SDS011;8335;42.646;23.380;2022-10-31T08:29:55;21.27;;;11.02;;
8279;SDS011;8335;42.646;23.380;2022-10-31T08:32:23;15.43;;;10.85;;
8279;SDS011;8335;42.646;23.380;2022-10-31T08:34:50;16.40;;;11.02;;
8279;SDS011;8335;42.646;23.380;2022-10-31T08:37:16;16.05;;;10.52;;
8279;SDS011;8335;42.646;23.380;2022-10-31T08:39:46;22.00;;;11.43;;
8279;SDS011;8335;42.646;23.380;2022-10-31T08:42:13;14.93;;;10.52;;
8279;SDS011;8335;42.646;23.380;2022-10-31T08:44:40;16.83;;;10.80;;
8279;SDS011;8335;42.646;23.380;2022-10-31T08:47:06;18.38;;;10.80;;
8279;SDS011;8335;42.646;23.380;2022-10-31T08:49:33;19.17;;;11.38;;
8279;SDS011;8335;42.646;23.380;2022-10-31T08:52:00;19.35;;;11.30;;
8279;SDS011;8335;42.646;23.380;2022-10-31T08:54:27;16.10;;;10.27;;
8279;SDS011;8335;42.646;23.380;2022-10-31T08:56:55;16.08;;;10.68;;
8279;SDS011;8335;42.646;23.380;2022-10-31T08:59:22;18.40;;;11.82;;
8279;SDS011;8335;42.646;23.380;2022-10-31T09:01:49;18.85;;;10.25;;
8279;SDS011;8335;42.646;23.380;2022-10-31T09:04:16;17.95;;;9.55;;
8279;SDS011;8335;42.646;23.380;2022-10-31T09:06:42;19.38;;;10.68;;
8279;SDS011;8335;42.646;23.380;2022-10-31T09:09:09;21.58;;;10.90;;
8279;SDS011;8335;42.646;23.380;2022-10-31T09:11:36;21.00;;;10.55;;
8279;SDS011;8335;42.646;23.380;2022-10-31T09:14:04;17.25;;;9.88;;
8279;SDS011;8335;42.646;23.380;2022-10-31T09:16:31;17.73;;;9.63;;
8279;SDS011;8335;42.646;23.380;2022-10-31T09:18:57;15.95;;;9.43;;
8279;SDS011;8335;42.646;23.380;2022-10-31T09:21:24;17.33;;;9.15;;
8279;SDS011;8335;42.646;23.380;2022-10-31T09:23:51;17.55;;;9.30;;
8279;SDS011;8335;42.646;23.380;2022-10-31T09:26:19;16.35;;;9.80;;
8279;SDS011;8335;42.646;23.380;2022-10-31T09:28:46;15.23;;;9.73;;
8279;SDS011;8335;42.646;23.380;2022-10-31T09:31:14;17.73;;;8.82;;
8279;SDS011;8335;42.646;23.380;2022-10-31T09:33:41;15.43;;;9.50;;
8279;SDS011;8335;42.646;23.380;2022-10-31T09:36:08;16.08;;;8.60;;
8279;SDS011;8335;42.646;23.380;2022-10-31T09:38:35;16.45;;;8.55;;
8279;SDS011;8335;42.646;23.380;2022-10-31T09:41:04;13.10;;;8.65;;
8279;SDS011;8335;42.646;23.380;2022-10-31T09:43:45;15.85;;;8.98;;
8279;SDS011;8335;42.646;23.380;2022-10-31T09:46:26;21.15;;;9.55;;
8279;SDS011;8335;42.646;23.380;2022-10-31T09:49:12;11.65;;;8.57;;
8279;SDS011;8335;42.646;23.380;2022-10-31T09:51:51;14.10;;;8.77;;
8279;SDS011;8335;42.646;23.380;2022-10-31T09:54:25;17.13;;;9.23;;
8279;SDS011;8335;42.646;23.380;2022-10-31T09:56:56;14.25;;;8.32;;
8279;SDS011;8335;42.646;23.380;2022-10-31T09:59:31;14.52;;;7.90;;
8279;SDS011;8335;42.646;23.380;2022-10-31T10:02:03;15.98;;;8.93;;
8279;SDS011;8335;42.646;23.380;2022-10-31T10:04:37;17.08;;;8.23;;
8279;SDS011;8335;42.646;23.380;2022-10-31T10:07:11;17.63;;;8.20;;
8279;SDS011;8335;42.646;23.380;2022-10-31T10:09:45;12.68;;;7.15;;
8279;SDS011;8335;42.646;23.380;2022-10-31T10:12:14;17.08;;;7.43;;
8279;SDS011;8335;42.646;23.380;2022-10-31T10:14:55;12.93;;;7.20;;
8279;SDS011;8335;42.646;23.380;2022-10-31T10:17:48;13.68;;;6.38;;
8279;SDS011;8335;42.646;23.380;2022-10-31T10:20:28;7.78;;;5.18;;
8279;SDS011;8335;42.646;23.380;2022-10-31T10:23:06;9.50;;;3.85;;
8279;SDS011;8335;42.646;23.380;2022-10-31T10:25:44;13.52;;;4.10;;
8279;SDS011;8335;42.646;23.380;2022-10-31T10:28:16;9.43;;;4.45;;
8279;SDS011;8335;42.646;23.380;2022-10-31T10:30:48;16.52;;;5.03;;
8279;SDS011;8335;42.646;23.380;2022-10-31T10:33:20;6.90;;;4.43;;
8279;SDS011;8335;42.646;23.380;2022-10-31T10:35:55;10.40;;;4.38;;
8279;SDS011;8335;42.646;23.380;2022-10-31T10:38:27;12.15;;;4.78;;
8279;SDS011;8335;42.646;23.380;2022-10-31T10:41:00;10.82;;;4.97;;
8279;SDS011;8335;42.646;23.380;2022-10-31T10:43:31;10.15;;;5.35;;
8279;SDS011;8335;42.646;23.380;2022-10-31T10:46:05;10.05;;;4.57;;
8279;SDS011;8335;42.646;23.380;2022-10-31T10:49:05;14.25;;;4.63;;
8279;SDS011;8335;42.646;23.380;2022-10-31T10:51:40;10.23;;;4.72;;
8279;SDS011;8335;42.646;23.380;2022-10-31T10:57:22;12.73;;;4.15;;
8279;SDS011;8335;42.646;23.380;2022-10-31T10:59:54;8.70;;;4.22;;
8279;SDS011;8335;42.646;23.380;2022-10-31T11:02:22;11.13;;;4.43;;
8279;SDS011;8335;42.646;23.380;2022-10-31T11:04:52;8.75;;;4.28;;
8279;SDS011;8335;42.646;23.380;2022-10-31T11:07:21;11.88;;;4.53;;
8279;SDS011;8335;42.646;23.380;2022-10-31T11:09:48;9.00;;;4.43;;
8279;SDS011;8335;42.646;23.380;2022-10-31T11:12:20;6.35;;;4.05;;
8279;SDS011;8335;42.646;23.380;2022-10-31T11:14:49;12.93;;;3.55;;
8279;SDS011;8335;42.646;23.380;2022-10-31T11:17:20;10.18;;;3.80;;
8279;SDS011;8335;42.646;23.380;2022-10-31T11:20:02;10.20;;;4.10;;
8279;SDS011;8335;42.646;23.380;2022-10-31T11:22:30;7.13;;;3.80;;
8279;SDS011;8335;42.646;23.380;2022-10-31T11:24:57;10.25;;;3.50;;
8279;SDS011;8335;42.646;23.380;2022-10-31T11:27:25;8.80;;;4.30;;
8279;SDS011;8335;42.646;23.380;2022-10-31T11:29:52;10.85;;;5.90;;
8279;SDS011;8335;42.646;23.380;2022-10-31T11:32:29;8.00;;;3.50;;
8279;SDS011;8335;42.646;23.380;2022-10-31T11:34:56;9.65;;;3.33;;
8279;SDS011;8335;42.646;23.380;2022-10-31T11:37:28;8.95;;;3.60;;
8279;SDS011;8335;42.646;23.380;2022-10-31T11:40:00;9.70;;;3.90;;
8279;SDS011;8335;42.646;23.380;2022-10-31T11:42:34;13.48;;;3.75;;
8279;SDS011;8335;42.646;23.380;2022-10-31T11:45:06;11.77;;;3.63;;
8279;SDS011;8335;42.646;23.380;2022-10-31T11:47:41;7.80;;;3.35;;
8279;SDS011;8335;42.646;23.380;2022-10-31T11:50:11;8.85;;;3.42;;
8279;SDS011;8335;42.646;23.380;2022-10-31T11:52:47;13.40;;;4.55;;
8279;SDS011;8335;42.646;23.380;2022-10-31T11:55:16;7.50;;;4.00;;
8279;SDS011;8335;42.646;23.380;2022-10-31T11:57:44;12.52;;;4.20;;
8279;SDS011;8335;42.646;23.380;2022-10-31T12:00:20;13.07;;;4.03;;
8279;SDS011;8335;42.646;23.380;2022-10-31T12:02:48;9.25;;;4.30;;
8279;SDS011;8335;42.646;23.380;2022-10-31T12:05:17;15.60;;;3.80;;
8279;SDS011;8335;42.646;23.380;2022-10-31T12:07:46;7.97;;;3.75;;
8279;SDS011;8335;42.646;23.380;2022-10-31T12:10:15;10.40;;;3.92;;
8279;SDS011;8335;42.646;23.380;2022-10-31T12:12:52;13.50;;;4.32;;
8279;SDS011;8335;42.646;23.380;2022-10-31T12:15:31;11.48;;;3.55;;
8279;SDS011;8335;42.646;23.380;2022-10-31T12:18:03;19.38;;;3.95;;
8279;SDS011;8335;42.646;23.380;2022-10-31T12:21:00;8.90;;;3.28;;
8279;SDS011;8335;42.646;23.380;2022-10-31T12:23:44;10.30;;;3.45;;
8279;SDS011;8335;42.646;23.380;2022-10-31T12:26:21;8.85;;;3.40;;
8279;SDS011;8335;42.646;23.380;2022-10-31T12:29:02;10.68;;;3.88;;
8279;SDS011;8335;42.646;23.380;2022-10-31T12:31:42;10.27;;;3.95;;
8279;SDS011;8335;42.646;23.380;2022-10-31T12:37:26;8.77;;;3.53;;
8279;SDS011;8335;42.646;23.380;2022-10-31T12:40:15;13.32;;;4.07;;
8279;SDS011;8335;42.646;23.380;2022-10-31T12:43:00;11.77;;;3.75;;
8279;SDS011;8335;42.646;23.380;2022-10-31T12:45:37;10.52;;;4.20;;
8279;SDS011;8335;42.646;23.380;2022-10-31T12:51:15;10.95;;;3.88;;
8279;SDS011;8335;42.646;23.380;2022-10-31T12:53:52;9.63;;;3.65;;
8279;SDS011;8335;42.646;23.380;2022-10-31T12:56:32;9.02;;;3.83;;
8279;SDS011;8335;42.646;23.380;2022-10-31T12:59:09;7.57;;;3.53;;
8279;SDS011;8335;42.646;23.380;2022-10-31T13:01:45;12.77;;;4.53;;
8279;SDS011;8335;42.646;23.380;2022-10-31T13:04:18;8.93;;;3.83;;
8279;SDS011;8335;42.646;23.380;2022-10-31T13:06:51;14.18;;;4.22;;
8279;SDS011;8335;42.646;23.380;2022-10-31T13:09:27;13.93;;;6.38;;
8279;SDS011;8335;42.646;23.380;2022-10-31T13:12:00;9.40;;;4.97;;
8279;SDS011;8335;42.646;23.380;2022-10-31T13:14:32;11.70;;;4.35;;
8279;SDS011;8335;42.646;23.380;2022-10-31T13:17:04;6.90;;;3.90;;
8279;SDS011;8335;42.646;23.380;2022-10-31T13:19:34;11.02;;;3.72;;
8279;SDS011;8335;42.646;23.380;2022-10-31T13:22:06;11.20;;;3.70;;
8279;SDS011;8335;42.646;23.380;2022-10-31T13:24:36;9.75;;;3.85;;
8279;SDS011;8335;42.646;23.380;2022-10-31T13:27:15;12.73;;;4.03;;
8279;SDS011;8335;42.646;23.380;2022-10-31T13:29:50;7.85;;;4.03;;
8279;SDS011;8335;42.646;23.380;2022-10-31T13:32:27;6.35;;;3.65;;
8279;SDS011;8335;42.646;23.380;2022-10-31T13:35:04;11.15;;;4.18;;
8279;SDS011;8335;42.646;23.380;2022-10-31T13:37:40;9.70;;;3.90;;
8279;SDS011;8335;42.646;23.380;2022-10-31T13:40:12;9.88;;;3.63;;
8279;SDS011;8335;42.646;23.380;2022-10-31T13:42:51;11.20;;;3.83;;
8279;SDS011;8335;42.646;23.380;2022-10-31T13:45:24;11.27;;;3.85;;
8279;SDS011;8335;42.646;23.380;2022-10-31T13:47:55;6.07;;;3.17;;
8279;SDS011;8335;42.646;23.380;2022-10-31T13:50:24;11.68;;;3.50;;
8279;SDS011;8335;42.646;23.380;2022-10-31T13:53:03;12.60;;;4.45;;
8279;SDS011;8335;42.646;23.380;2022-10-31T13:55:38;11.40;;;4.03;;
8279;SDS011;8335;42.646;23.380;2022-10-31T13:58:21;8.32;;;3.33;;
8279;SDS011;8335;42.646;23.380;2022-10-31T14:00:58;7.57;;;4.13;;
8279;SDS011;8335;42.646;23.380;2022-10-31T14:03:38;9.65;;;3.72;;
8279;SDS011;8335;42.646;23.380;2022-10-31T14:06:07;6.70;;;3.83;;
8279;SDS011;8335;42.646;23.380;2022-10-31T14:08:37;11.45;;;4.00;;
8279;SDS011;8335;42.646;23.380;2022-10-31T14:11:07;9.27;;;4.18;;
8279;SDS011;8335;42.646;23.380;2022-10-31T14:13:45;13.02;;;3.90;;
8279;SDS011;8335;42.646;23.380;2022-10-31T14:16:17;15.15;;;4.18;;
8279;SDS011;8335;42.646;23.380;2022-10-31T14:18:47;14.68;;;3.67;;
8279;SDS011;8335;42.646;23.380;2022-10-31T14:21:25;14.02;;;4.05;;
8279;SDS011;8335;42.646;23.380;2022-10-31T14:23:55;13.07;;;3.83;;
8279;SDS011;8335;42.646;23.380;2022-10-31T14:26:32;8.77;;;3.47;;
8279;SDS011;8335;42.646;23.380;2022-10-31T14:29:20;12.60;;;4.07;;
8279;SDS011;8335;42.646;23.380;2022-10-31T14:31:53;11.88;;;3.30;;
8279;SDS011;8335;42.646;23.380;2022-10-31T14:34:23;12.43;;;3.78;;
8279;SDS011;8335;42.646;23.380;2022-10-31T14:36:59;15.70;;;4.00;;
8279;SDS011;8335;42.646;23.380;2022-10-31T14:39:38;11.27;;;4.18;;
8279;SDS011;8335;42.646;23.380;2022-10-31T14:42:17;9.77;;;3.90;;
8279;SDS011;8335;42.646;23.380;2022-10-31T14:45:05;10.18;;;4.00;;
8279;SDS011;8335;42.646;23.380;2022-10-31T14:47:43;12.20;;;3.90;;
8279;SDS011;8335;42.646;23.380;2022-10-31T14:50:23;16.23;;;4.22;;
8279;SDS011;8335;42.646;23.380;2022-10-31T14:53:01;11.43;;;3.95;;
8279;SDS011;8335;42.646;23.380;2022-10-31T14:55:31;13.30;;;4.18;;
8279;SDS011;8335;42.646;23.380;2022-10-31T14:57:59;16.50;;;3.92;;
8279;SDS011;8335;42.646;23.380;2022-10-31T15:00:30;15.10;;;4.00;;
8279;SDS011;8335;42.646;23.380;2022-10-31T15:03:03;12.52;;;4.32;;
8279;SDS011;8335;42.646;23.380;2022-10-31T15:05:34;9.57;;;3.80;;
8279;SDS011;8335;42.646;23.380;2022-10-31T15:08:12;17.45;;;4.20;;
8279;SDS011;8335;42.646;23.380;2022-10-31T15:10:51;14.52;;;3.88;;
8279;SDS011;8335;42.646;23.380;2022-10-31T15:13:19;13.00;;;3.45;;
8279;SDS011;8335;42.646;23.380;2022-10-31T15:15:48;16.13;;;4.00;;
8279;SDS011;8335;42.646;23.380;2022-10-31T15:18:18;11.90;;;3.80;;
8279;SDS011;8335;42.646;23.380;2022-10-31T15:20:47;14.45;;;3.60;;
8279;SDS011;8335;42.646;23.380;2022-10-31T15:23:16;12.10;;;2.83;;
8279;SDS011;8335;42.646;23.380;2022-10-31T15:25:48;7.95;;;3.40;;